createdAt,value
2018-06-16T00:01:15.229Z,14.15
2018-06-16T00:03:49.073Z,14.12
2018-06-16T00:06:23.160Z,14.05
2018-06-16T00:08:57.179Z,14.03
2018-06-16T00:11:31.191Z,14.14
2018-06-16T00:14:05.071Z,14.17
2018-06-16T00:16:39.212Z,14.26
2018-06-16T00:19:13.141Z,14.10
2018-06-16T00:21:47.402Z,14.14
2018-06-16T00:24:21.398Z,14.06
2018-06-16T00:26:55.452Z,13.98
2018-06-16T00:29:29.344Z,13.94
2018-06-16T00:32:03.500Z,13.96
2018-06-16T00:34:37.505Z,14.14
2018-06-16T00:37:17.008Z,14.19
2018-06-16T00:39:51.031Z,14.17
2018-06-16T00:42:25.079Z,14.17
2018-06-16T00:44:58.947Z,14.07
2018-06-16T00:47:32.975Z,14.13
2018-06-16T00:50:06.921Z,14.10
2018-06-16T00:52:40.957Z,14.05
2018-06-16T00:55:14.915Z,14.00
2018-06-16T00:57:50.110Z,13.90
2018-06-16T01:00:24.058Z,13.70
2018-06-16T01:02:58.106Z,13.58
2018-06-16T01:05:32.138Z,13.67
2018-06-16T01:08:06.265Z,13.76
2018-06-16T01:10:40.231Z,13.75
2018-06-16T01:13:14.437Z,13.77
2018-06-16T01:15:48.412Z,13.58
2018-06-16T01:18:22.679Z,13.52
2018-06-16T01:20:56.709Z,13.46
2018-06-16T01:23:31.083Z,13.63
2018-06-16T01:26:05.031Z,13.64
2018-06-16T01:28:38.943Z,13.61
2018-06-16T01:31:13.900Z,13.62
2018-06-16T01:33:47.959Z,13.48
2018-06-16T01:36:22.018Z,13.42
2018-06-16T01:38:56.205Z,13.59
2018-06-16T01:41:30.111Z,13.55
2018-06-16T01:44:04.299Z,13.45
2018-06-16T01:46:38.246Z,13.51
2018-06-16T01:49:12.292Z,13.40
2018-06-16T01:51:46.251Z,13.49
2018-06-16T01:54:20.448Z,13.46
2018-06-16T01:56:54.550Z,13.52
2018-06-16T01:59:28.526Z,13.57
2018-06-16T02:02:02.527Z,13.44
2018-06-16T02:04:36.518Z,13.41
2018-06-16T02:07:10.630Z,13.46
2018-06-16T02:09:44.772Z,13.28
2018-06-16T02:12:18.747Z,13.16
2018-06-16T02:14:52.804Z,13.05
2018-06-16T02:17:26.745Z,13.18
2018-06-16T02:20:01.121Z,13.28
2018-06-16T02:22:35.024Z,13.37
2018-06-16T02:25:09.068Z,13.42
2018-06-16T02:27:43.152Z,13.50
2018-06-16T02:30:17.187Z,13.50
2018-06-16T02:32:51.181Z,13.58
2018-06-16T02:35:25.235Z,13.61
2018-06-16T02:37:59.212Z,13.68
2018-06-16T02:40:33.274Z,13.44
2018-06-16T02:43:07.179Z,13.50
2018-06-16T02:45:41.335Z,13.54
2018-06-16T02:48:15.267Z,13.28
2018-06-16T02:50:49.368Z,13.23
2018-06-16T02:53:23.290Z,13.39
2018-06-16T02:55:57.344Z,13.26
2018-06-16T02:58:31.439Z,13.23
2018-06-16T03:01:05.575Z,13.24
2018-06-16T03:03:39.697Z,13.42
2018-06-16T03:06:13.665Z,13.58
2018-06-16T03:08:47.672Z,13.76
2018-06-16T03:11:21.768Z,13.77
2018-06-16T03:13:55.591Z,13.93
2018-06-16T03:16:29.755Z,14.02
2018-06-16T03:19:03.859Z,14.11
2018-06-16T03:21:38.358Z,14.35
2018-06-16T03:24:12.269Z,14.37
2018-06-16T03:26:46.756Z,14.17
2018-06-16T03:29:20.892Z,14.31
2018-06-16T03:31:54.914Z,14.41
2018-06-16T03:34:29.488Z,14.57
2018-06-16T03:37:03.487Z,14.68
2018-06-16T03:39:37.450Z,14.72
2018-06-16T03:42:11.607Z,14.82
2018-06-16T03:44:45.635Z,14.79
2018-06-16T03:47:19.541Z,14.76
2018-06-16T03:49:53.580Z,14.89
2018-06-16T03:52:27.710Z,15.00
2018-06-16T03:55:01.769Z,14.88
2018-06-16T03:57:35.922Z,14.89
2018-06-16T04:00:09.911Z,14.92
2018-06-16T04:02:44.013Z,14.94
2018-06-16T04:05:17.992Z,14.97
2018-06-16T04:07:55.048Z,15.07
2018-06-16T04:10:28.962Z,15.19
2018-06-16T04:13:03.041Z,15.03
2018-06-16T04:15:37.200Z,15.22
2018-06-16T04:18:11.217Z,15.24
2018-06-16T04:20:45.243Z,15.12
2018-06-16T04:23:19.347Z,14.78
2018-06-16T04:25:53.287Z,14.53
2018-06-16T04:28:27.603Z,14.89
2018-06-16T04:31:01.587Z,14.96
2018-06-16T04:33:35.476Z,15.10
2018-06-16T04:36:09.463Z,15.45
2018-06-16T04:38:43.475Z,15.63
2018-06-16T04:41:17.558Z,15.88
2018-06-16T04:43:52.403Z,16.06
2018-06-16T04:46:26.391Z,16.17
2018-06-16T04:49:00.357Z,16.18
2018-06-16T04:51:34.235Z,16.33
2018-06-16T04:54:08.375Z,16.89
2018-06-16T04:56:42.381Z,17.15
2018-06-16T04:59:16.608Z,17.40
2018-06-16T05:01:50.780Z,17.26
2018-06-16T05:04:24.715Z,16.80
2018-06-16T05:06:58.695Z,16.69
2018-06-16T05:09:32.705Z,16.89
2018-06-16T05:12:06.728Z,16.95
2018-06-16T05:14:40.850Z,16.87
2018-06-16T05:17:14.852Z,16.45
2018-06-16T05:19:49.737Z,16.01
2018-06-16T05:22:24.039Z,15.48
2018-06-16T05:24:58.351Z,15.17
2018-06-16T05:27:32.573Z,15.19
2018-06-16T05:30:06.959Z,15.17
2018-06-16T05:32:41.697Z,15.41
2018-06-16T05:35:15.913Z,15.64
2018-06-16T05:40:44.582Z,15.87
2018-06-16T05:43:18.779Z,16.12
2018-06-16T05:45:53.263Z,16.21
2018-06-16T05:48:27.628Z,16.35
2018-06-16T05:51:01.779Z,16.65
2018-06-16T05:53:35.812Z,17.22
2018-06-16T05:56:10.207Z,17.37
2018-06-16T05:58:44.291Z,17.55
2018-06-16T06:01:18.436Z,17.91
2018-06-16T06:03:54.030Z,18.14
2018-06-16T06:06:28.248Z,18.72
2018-06-16T06:09:02.997Z,19.25
2018-06-16T06:11:37.012Z,19.49
2018-06-16T06:14:11.127Z,19.33
2018-06-16T06:16:46.270Z,19.50
2018-06-16T06:19:21.119Z,19.67
2018-06-16T06:21:55.151Z,19.48
2018-06-16T06:24:29.083Z,19.55
2018-06-16T06:27:03.277Z,19.28
2018-06-16T06:29:37.339Z,20.00
2018-06-16T06:32:11.405Z,20.06
2018-06-16T06:34:45.467Z,19.88
2018-06-16T06:37:19.442Z,19.88
2018-06-16T06:39:53.922Z,19.72
2018-06-16T06:42:28.087Z,19.30
2018-06-16T06:45:02.067Z,19.14
2018-06-16T06:47:37.526Z,19.62
2018-06-16T06:50:11.667Z,19.70
2018-06-16T06:52:45.691Z,20.23
2018-06-16T06:55:19.611Z,20.72
2018-06-16T06:57:54.229Z,20.57
2018-06-16T07:00:28.086Z,20.28
2018-06-16T07:03:02.231Z,19.98
2018-06-16T07:05:36.374Z,19.87
2018-06-16T07:08:10.687Z,19.65
2018-06-16T07:10:44.787Z,20.17
2018-06-16T07:13:18.667Z,20.15
2018-06-16T07:15:52.563Z,20.18
2018-06-16T07:18:26.711Z,20.62
2018-06-16T07:21:00.662Z,21.39
2018-06-16T07:23:35.037Z,21.80
2018-06-16T07:26:09.000Z,21.26
2018-06-16T07:28:43.104Z,21.45
2018-06-16T07:31:17.069Z,21.65
2018-06-16T07:33:51.220Z,21.88
2018-06-16T07:36:25.488Z,22.25
2018-06-16T07:38:59.615Z,22.40
2018-06-16T07:41:33.597Z,22.30
2018-06-16T07:44:07.616Z,22.53
2018-06-16T07:46:41.470Z,22.76
2018-06-16T07:49:15.532Z,23.11
2018-06-16T07:51:49.615Z,23.57
2018-06-16T07:54:23.612Z,23.71
2018-06-16T07:56:57.457Z,23.37
2018-06-16T07:59:31.466Z,23.52
2018-06-16T08:02:05.474Z,23.53
2018-06-16T08:04:41.323Z,23.84
2018-06-16T08:07:15.291Z,24.22
2018-06-16T08:09:49.443Z,24.22
2018-06-16T08:12:23.419Z,24.38
2018-06-16T08:14:57.504Z,23.53
2018-06-16T08:17:31.438Z,24.00
2018-06-16T08:20:05.637Z,24.41
2018-06-16T08:22:39.724Z,24.60
2018-06-16T08:25:13.678Z,24.78
2018-06-16T08:27:47.615Z,24.69
2018-06-16T08:30:21.718Z,24.96
2018-06-16T08:32:55.682Z,25.21
2018-06-16T08:35:30.041Z,25.26
2018-06-16T08:38:03.963Z,25.33
2018-06-16T08:40:37.850Z,25.29
2018-06-16T08:43:11.844Z,25.75
2018-06-16T08:45:45.942Z,25.31
2018-06-16T08:48:19.899Z,25.35
2018-06-16T08:50:54.119Z,25.50
2018-06-16T08:53:28.089Z,25.68
2018-06-16T08:56:01.986Z,25.37
2018-06-16T08:58:36.000Z,25.53
2018-06-16T09:02:34.482Z,25.71
2018-06-16T09:05:08.520Z,25.55
2018-06-16T09:07:42.978Z,25.94
2018-06-16T09:10:17.075Z,25.92
2018-06-16T09:12:51.070Z,26.18
2018-06-16T09:15:24.915Z,26.27
2018-06-16T09:17:58.984Z,26.09
2018-06-16T09:20:32.948Z,26.60
2018-06-16T09:23:07.095Z,26.50
2018-06-16T09:25:41.079Z,26.51
2018-06-16T09:28:15.153Z,26.64
2018-06-16T09:30:49.079Z,26.06
2018-06-16T09:33:23.120Z,26.30
2018-06-16T09:35:57.052Z,26.03
2018-06-16T09:38:31.272Z,25.88
2018-06-16T09:41:05.314Z,25.69
2018-06-16T09:43:39.437Z,25.81
2018-06-16T09:46:13.294Z,25.92
2018-06-16T09:48:47.371Z,26.00
2018-06-16T09:51:21.397Z,26.25
2018-06-16T09:53:55.599Z,26.04
2018-06-16T09:56:29.642Z,26.05
2018-06-16T09:59:03.703Z,25.68
2018-06-16T10:01:37.812Z,25.35
2018-06-16T10:04:11.819Z,25.20
2018-06-16T10:06:45.754Z,25.19
2018-06-16T10:09:19.803Z,25.17
2018-06-16T10:11:53.685Z,25.08
2018-06-16T10:14:27.839Z,25.04
2018-06-16T10:17:01.912Z,25.14
2018-06-16T10:19:35.972Z,24.77
2018-06-16T10:22:10.092Z,24.92
2018-06-16T10:24:44.476Z,25.07
2018-06-16T10:27:18.559Z,25.20
2018-06-16T10:29:52.505Z,25.36
2018-06-16T10:32:26.564Z,25.10
2018-06-16T10:35:00.568Z,25.24
2018-06-16T10:37:34.626Z,25.48
2018-06-16T10:40:08.787Z,25.35
2018-06-16T10:42:42.880Z,25.28
2018-06-16T10:45:16.871Z,25.08
2018-06-16T10:47:50.901Z,24.55
2018-06-16T10:50:24.984Z,24.42
2018-06-16T10:52:58.943Z,24.22
2018-06-16T10:55:33.051Z,24.14
2018-06-16T10:58:06.955Z,23.78
2018-06-16T11:00:40.959Z,23.66
2018-06-16T11:03:14.885Z,23.32
2018-06-16T11:05:48.978Z,23.07
2018-06-16T11:08:23.025Z,23.24
2018-06-16T11:10:57.132Z,22.96
2018-06-16T11:13:31.104Z,22.86
2018-06-16T11:16:05.382Z,23.13
2018-06-16T11:18:44.427Z,23.22
2018-06-16T11:21:18.422Z,23.26
2018-06-16T11:23:52.385Z,23.41
2018-06-16T11:26:26.556Z,23.74
2018-06-16T11:29:00.471Z,23.97
2018-06-16T11:31:34.588Z,24.22
2018-06-16T11:34:08.619Z,23.82
2018-06-16T11:36:42.771Z,23.96
2018-06-16T11:39:16.779Z,24.33
2018-06-16T11:41:44.713Z,24.86
2018-06-16T11:44:12.553Z,25.51
2018-06-16T11:46:40.378Z,25.89
2018-06-16T11:49:08.239Z,25.51
2018-06-16T11:51:36.079Z,25.55
2018-06-16T11:54:03.934Z,24.81
2018-06-16T11:56:32.033Z,24.72
2018-06-16T11:58:59.883Z,24.55
2018-06-16T12:01:27.742Z,24.24
2018-06-16T12:03:55.666Z,24.23
2018-06-16T12:06:23.502Z,23.95
2018-06-16T12:08:51.386Z,23.54
2018-06-16T12:11:19.268Z,22.88
2018-06-16T12:13:47.100Z,22.41
2018-06-16T12:16:15.017Z,21.82
2018-06-16T12:18:42.905Z,21.69
2018-06-16T12:21:10.730Z,21.34
2018-06-16T12:23:38.580Z,20.47
2018-06-16T12:26:06.532Z,20.06
2018-06-16T12:28:34.411Z,19.72
2018-06-16T12:31:02.251Z,18.70
2018-06-16T12:33:30.216Z,18.61
2018-06-16T12:35:58.152Z,18.32
2018-06-16T12:38:25.988Z,18.27
2018-06-16T12:40:53.920Z,18.13
2018-06-16T12:43:21.774Z,18.06
2018-06-16T12:45:50.250Z,17.96
2018-06-16T12:48:18.175Z,17.64
2018-06-16T12:50:46.043Z,17.24
2018-06-16T12:53:13.893Z,16.82
2018-06-16T12:55:41.767Z,15.97
2018-06-16T12:58:09.598Z,16.15
2018-06-16T13:00:37.445Z,16.33
2018-06-16T13:03:05.316Z,16.50
2018-06-16T13:05:33.143Z,16.55
2018-06-16T13:08:01.001Z,16.46
2018-06-16T13:10:28.995Z,16.66
2018-06-16T13:12:56.844Z,16.62
2018-06-16T13:15:24.691Z,16.72
2018-06-16T13:17:52.592Z,16.91
2018-06-16T13:20:20.444Z,17.20
2018-06-16T13:22:48.293Z,17.24
2018-06-16T13:25:16.179Z,17.42
2018-06-16T13:27:44.006Z,17.52
2018-06-16T13:30:11.824Z,17.53
2018-06-16T13:32:39.792Z,17.31
2018-06-16T13:35:07.660Z,17.24
2018-06-16T13:37:35.599Z,17.43
2018-06-16T13:40:03.561Z,17.55
2018-06-16T13:42:31.408Z,17.80
2018-06-16T13:44:59.420Z,17.96
2018-06-16T13:47:27.287Z,18.24
2018-06-16T13:49:55.117Z,18.55
2018-06-16T13:52:22.997Z,18.92
2018-06-16T13:54:51.051Z,19.62
2018-06-16T13:57:18.898Z,20.72
2018-06-16T13:59:46.754Z,21.59
2018-06-16T14:02:14.779Z,20.17
2018-06-16T14:04:42.617Z,20.87
2018-06-16T14:07:10.540Z,20.84
2018-06-16T14:09:38.411Z,21.07
2018-06-16T14:12:06.264Z,20.55
2018-06-16T14:14:34.117Z,21.26
2018-06-16T14:17:02.095Z,21.80
2018-06-16T14:19:30.033Z,21.72
2018-06-16T14:21:58.075Z,21.26
2018-06-16T14:24:26.044Z,20.52
2018-06-16T14:26:53.930Z,20.42
2018-06-16T14:29:21.913Z,20.47
2018-06-16T14:31:51.076Z,20.09
2018-06-16T14:34:18.927Z,20.24
2018-06-16T14:36:46.784Z,20.10
2018-06-16T14:39:15.198Z,19.93
2018-06-16T14:41:43.085Z,19.81
2018-06-16T14:44:10.972Z,19.91
2018-06-16T14:46:38.875Z,19.50
2018-06-16T14:49:07.918Z,19.29
2018-06-16T14:51:35.908Z,19.26
2018-06-16T14:54:03.996Z,19.41
2018-06-16T14:56:31.977Z,19.66
2018-06-16T14:59:00.574Z,19.73
2018-06-16T15:01:28.555Z,19.95
2018-06-16T15:03:58.150Z,19.59
2018-06-16T15:06:26.121Z,19.28
2018-06-16T15:08:54.791Z,18.60
2018-06-16T15:11:22.827Z,18.66
2018-06-16T15:13:57.186Z,18.57
2018-06-16T15:16:27.625Z,18.67
2018-06-16T15:18:55.457Z,18.90
2018-06-16T15:21:23.596Z,19.76
2018-06-16T15:23:51.701Z,20.58
2018-06-16T15:26:19.571Z,21.35
2018-06-16T15:28:47.538Z,21.05
2018-06-16T15:31:15.392Z,20.54
2018-06-16T15:33:44.418Z,20.54
2018-06-16T15:36:12.562Z,20.50
2018-06-16T15:38:40.728Z,20.44
2018-06-16T15:41:09.986Z,21.73
2018-06-16T15:43:38.632Z,22.74
2018-06-16T15:46:06.548Z,22.48
2018-06-16T15:48:35.174Z,22.44
2018-06-16T15:51:04.394Z,22.00
2018-06-16T15:53:32.656Z,21.51
2018-06-16T15:56:00.489Z,21.18
2018-06-16T15:58:28.407Z,20.79
2018-06-16T16:00:56.265Z,20.48
2018-06-16T16:03:24.196Z,20.03
2018-06-16T16:05:52.378Z,20.08
2018-06-16T16:08:20.155Z,19.96
2018-06-16T16:10:48.115Z,19.86
2018-06-16T16:13:16.332Z,19.99
2018-06-16T16:15:44.708Z,20.05
2018-06-16T16:18:13.787Z,20.29
2018-06-16T16:20:41.688Z,20.25
2018-06-16T16:23:09.787Z,20.10
2018-06-16T16:25:37.621Z,19.77
2018-06-16T16:28:05.696Z,19.43
2018-06-16T16:30:33.815Z,19.45
2018-06-16T16:33:01.913Z,19.29
2018-06-16T16:35:29.821Z,19.18
2018-06-16T16:37:57.654Z,19.03
2018-06-16T16:40:25.814Z,19.10
2018-06-16T16:42:53.901Z,18.97
2018-06-16T16:45:21.833Z,19.02
2018-06-16T16:47:49.934Z,18.96
2018-06-16T16:50:18.048Z,18.83
2018-06-16T16:52:45.939Z,18.94
2018-06-16T16:55:14.026Z,19.08
2018-06-16T16:57:41.916Z,19.13
2018-06-16T17:00:11.197Z,19.17
2018-06-16T17:02:39.391Z,19.22
2018-06-16T17:05:07.494Z,19.27
2018-06-16T17:07:35.492Z,19.43
2018-06-16T17:10:03.838Z,19.30
2018-06-16T17:12:31.871Z,19.33
2018-06-16T17:15:00.093Z,19.15
2018-06-16T17:17:28.009Z,19.24
2018-06-16T17:19:55.874Z,19.13
2018-06-16T17:22:23.889Z,18.93
2018-06-16T17:24:52.259Z,18.64
2018-06-16T17:27:20.201Z,18.57
2018-06-16T17:29:48.401Z,18.52
2018-06-16T17:32:16.259Z,18.41
2018-06-16T17:34:44.217Z,18.34
2018-06-16T17:37:12.077Z,18.11
2018-06-16T17:39:39.923Z,18.10
2018-06-16T17:42:07.819Z,17.98
2018-06-16T17:44:35.884Z,17.78
2018-06-16T17:47:03.767Z,17.65
2018-06-16T17:49:31.692Z,17.57
2018-06-16T17:51:59.651Z,17.23
2018-06-16T17:54:27.644Z,17.28
2018-06-16T17:56:55.596Z,17.16
2018-06-16T17:59:23.487Z,17.09
2018-06-16T18:01:51.392Z,17.04
2018-06-16T18:04:19.296Z,17.02
2018-06-16T18:06:47.156Z,17.02
2018-06-16T18:09:15.204Z,17.02
2018-06-16T18:11:43.082Z,16.92
2018-06-16T18:14:10.915Z,16.89
2018-06-16T18:16:38.868Z,16.89
2018-06-16T18:19:06.905Z,16.84
2018-06-16T18:21:35.861Z,16.87
2018-06-16T18:24:04.435Z,16.84
2018-06-16T18:26:32.326Z,16.88
2018-06-16T18:29:00.803Z,16.72
2018-06-16T18:31:28.645Z,16.73
2018-06-16T18:33:56.551Z,16.78
2018-06-16T18:36:24.738Z,16.72
2018-06-16T18:45:56.099Z,16.68
2018-06-16T18:48:23.947Z,16.59
2018-06-16T18:50:52.328Z,16.64
2018-06-16T18:53:20.227Z,16.58
2018-06-16T18:55:50.970Z,16.67
2018-06-16T18:58:19.320Z,16.66
2018-06-16T19:00:48.176Z,16.63
2018-06-16T19:03:16.021Z,16.56
2018-06-16T19:05:43.954Z,16.41
2018-06-16T19:10:55.927Z,16.40
2018-06-16T19:13:24.017Z,16.39
2018-06-16T19:15:52.109Z,16.43
2018-06-16T19:18:19.994Z,16.35
2018-06-16T19:20:48.010Z,16.35
2018-06-16T19:23:15.951Z,16.03
2018-06-16T19:25:43.775Z,16.22
2018-06-16T19:28:12.080Z,16.29
2018-06-16T19:30:39.954Z,16.24
2018-06-16T19:33:07.788Z,16.25
2018-06-16T19:35:38.292Z,16.17
2018-06-16T19:38:06.246Z,16.12
2018-06-16T19:40:34.104Z,16.01
2018-06-16T19:43:02.288Z,16.08
2018-06-16T19:45:30.165Z,16.00
2018-06-16T19:47:58.314Z,16.05
2018-06-16T19:50:26.272Z,16.03
2018-06-16T19:52:54.131Z,16.06
2018-06-16T19:55:22.006Z,16.06
2018-06-16T19:57:51.541Z,16.08
2018-06-16T20:00:25.626Z,16.00
2018-06-16T20:02:59.842Z,15.99
2018-06-16T20:05:34.032Z,15.94
2018-06-16T20:08:08.146Z,15.93
2018-06-16T20:10:42.519Z,15.90
2018-06-16T20:13:16.519Z,15.95
2018-06-16T20:15:50.427Z,15.83
2018-06-16T20:18:24.540Z,15.99
2018-06-16T20:20:58.505Z,15.89
2018-06-16T20:23:32.515Z,16.08
2018-06-16T20:26:06.454Z,16.02
2018-06-16T20:28:40.462Z,15.97
2018-06-16T20:31:14.392Z,15.90
2018-06-16T20:33:48.544Z,15.95
2018-06-16T20:36:22.646Z,15.98
2018-06-16T20:38:56.603Z,16.04
2018-06-16T20:41:30.675Z,15.92
2018-06-16T20:44:04.799Z,15.84
2018-06-16T20:53:34.620Z,15.81
2018-06-16T20:56:08.601Z,15.83
2018-06-16T20:58:42.649Z,15.79
2018-06-16T21:01:16.701Z,15.79
2018-06-16T21:03:50.743Z,15.80
2018-06-16T21:06:24.637Z,15.76
2018-06-16T21:08:58.656Z,15.76
2018-06-16T21:11:32.681Z,15.63
2018-06-16T21:14:06.775Z,15.57
2018-06-16T21:16:40.803Z,15.40
2018-06-16T21:19:14.823Z,15.37
2018-06-16T21:21:48.786Z,15.34
2018-06-16T21:24:22.756Z,15.36
2018-06-16T21:26:56.791Z,15.33
2018-06-16T21:29:30.787Z,15.50
2018-06-16T21:32:05.673Z,15.58
2018-06-16T21:34:40.112Z,15.51
2018-06-16T21:37:14.447Z,15.60
2018-06-16T21:39:48.566Z,15.69
2018-06-16T21:42:22.753Z,15.72
2018-06-16T21:44:58.327Z,15.79
2018-06-16T21:47:40.367Z,15.78
2018-06-16T21:50:17.444Z,15.74
2018-06-16T21:52:51.420Z,15.74
2018-06-16T21:55:27.559Z,15.77
2018-06-16T21:58:01.711Z,15.76
2018-06-16T22:00:41.020Z,15.71
2018-06-16T22:03:15.031Z,15.76
2018-06-16T22:05:49.033Z,15.66
2018-06-16T22:08:30.977Z,15.70
2018-06-16T22:11:05.035Z,15.70
2018-06-16T22:13:38.978Z,15.69
2018-06-16T22:16:13.016Z,15.60
2018-06-16T22:18:46.975Z,15.55
2018-06-16T22:21:20.893Z,15.53
2018-06-16T22:23:55.150Z,15.48
2018-06-16T22:26:29.170Z,15.44
2018-06-16T22:29:03.128Z,15.38
2018-06-16T22:31:37.139Z,15.34
2018-06-16T22:34:11.067Z,15.31
2018-06-16T22:36:45.165Z,15.31
2018-06-16T22:39:19.292Z,15.15
2018-06-16T22:41:53.365Z,15.18
2018-06-16T22:44:27.270Z,15.10
2018-06-16T22:47:01.370Z,15.00
2018-06-16T22:49:35.327Z,15.15
2018-06-16T22:52:09.672Z,15.10
2018-06-16T22:54:43.607Z,15.01
2018-06-16T22:57:17.812Z,14.97
2018-06-16T22:59:51.805Z,14.80
2018-06-16T23:02:25.869Z,14.77
2018-06-16T23:04:59.942Z,14.76
2018-06-16T23:07:33.938Z,14.81
2018-06-16T23:10:07.882Z,14.67
2018-06-16T23:12:41.894Z,14.73
2018-06-16T23:15:15.994Z,14.57
2018-06-16T23:17:49.924Z,14.50
2018-06-16T23:20:24.007Z,14.39
2018-06-16T23:22:57.986Z,14.35
2018-06-16T23:25:31.904Z,14.27
2018-06-16T23:28:06.000Z,14.37
2018-06-16T23:30:39.950Z,14.24
2018-06-16T23:33:13.982Z,14.11
2018-06-16T23:35:48.016Z,14.20
2018-06-16T23:38:22.070Z,14.17
2018-06-16T23:40:55.970Z,14.18
2018-06-16T23:43:30.065Z,14.23
2018-06-16T23:46:04.109Z,14.18
2018-06-16T23:48:38.205Z,13.97
2018-06-16T23:51:12.113Z,13.98
2018-06-16T23:53:46.094Z,13.88
2018-06-16T23:56:20.060Z,13.94
2018-06-16T23:58:54.269Z,14.03
